EDT,Max TemperatureF,Mean TemperatureF,Min TemperatureF,Max Dew PointF,MeanDew PointF,Min DewpointF,Max Humidity, Mean Humidity, Min Humidity, Max Sea Level PressureIn, Mean Sea Level PressureIn, Min Sea Level PressureIn, Max VisibilityMiles, Mean VisibilityMiles, Min VisibilityMiles, Max Wind SpeedMPH, Mean Wind SpeedMPH, Max Gust SpeedMPH,PrecipitationIn, CloudCover, Events, WindDirDegrees
2014-3-1,30,24,17,22,17,10,91,74,57,30.29,30.17,30.09,10,5,1,12,5,15,0.22,8,Snow,309
2014-3-2,19,14,8,16,5,-3,88,69,49,30.37,30.31,30.24,10,5,0,15,7,20,0.16,8,Fog-Snow,22
2014-3-3,17,9,0,-2,-6,-11,63,52,40,30.51,30.47,30.38,10,10,9,15,6,21,0.00,4,,320
2014-3-4,21,11,0,5,-2,-8,75,55,34,30.45,30.34,30.25,10,10,10,9,4,12,0.00,8,,191
2014-3-5,24,19,14,16,10,3,77,63,49,30.55,30.44,30.29,10,8,1,15,7,21,T,8,Snow,31
2014-3-6,26,20,13,12,8,4,84,67,50,30.54,30.40,30.19,10,10,10,15,7,21,0.00,4,,56
2014-3-7,44,27,10,27,19,7,84,67,49,30.17,30.05,29.94,10,9,7,13,4,16,0.00,3,,185
2014-3-8,38,31,24,33,24,17,92,76,59,30.19,30.07,29.92,10,7,2,14,8,17,0.16,7,Rain-Snow,328
2014-3-9,36,28,19,28,19,12,81,63,45,30.26,30.11,29.85,10,10,8,23,12,28,0.00,5,,227
2014-3-10,47,41,35,35,32,28,82,71,60,29.85,29.70,29.59,10,8,5,26,13,38,0.00,6,,208
2014-3-11,53,45,36,38,35,32,92,69,46,29.77,29.69,29.65,10,7,3,15,6,21,0.14,8,Rain,253
2014-3-12,37,23,8,34,21,1,92,71,49,30.04,29.70,29.55,10,5,0,31,16,39,0.57,7,Fog-Snow,354
2014-3-13,23,13,3,11,2,-3,73,55,28,30.20,30.11,30.03,10,10,10,16,8,,0.00,3,,232
2014-3-14,51,34,17,34,26,12,84,67,50,29.99,29.75,29.59,10,10,10,36,17,45,0.00,4,,200
2014-3-15,41,34,27,30,25,15,76,62,48,30.27,29.99,29.74,10,10,10,22,12,30,0.00,6,,283
2014-3-16,27,20,12,14,6,-1,67,53,39,30.44,30.35,30.24,10,10,4,21,12,25,T,5,Snow,15
2014-3-17,31,21,11,15,7,1,73,58,42,30.21,30.08,29.97,10,10,10,13,7,18,0.00,4,,51
2014-3-18,47,36,25,30,24,15,88,69,49,30.06,30.01,29.89,10,10,7,14,7,21,0.00,6,,79
2014-3-19,51,43,35,45,37,29,86,80,73,29.90,29.73,29.60,10,8,2,30,14,36,0.09,8,Rain,180
2014-3-20,41,35,29,34,25,20,75,60,45,30.08,29.94,29.83,10,9,5,24,14,33,T,7,Rain-Snow,259
2014-3-21,41,33,24,28,22,19,81,65,48,30.12,30.01,29.71,10,10,7,16,6,21,T,3,,123
2014-3-22,42,36,29,36,28,20,92,71,50,30.23,29.98,29.68,10,8,2,22,11,28,0.06,7,Rain-Snow,284
2014-3-23,29,23,17,16,6,3,60,50,39,30.38,30.35,30.24,10,10,10,18,10,24,0.00,5,,309
2014-3-24,33,25,16,11,8,3,67,51,35,30.37,30.27,30.14,10,10,9,21,8,28,T,6,,275
2014-3-25,35,26,16,23,15,10,84,64,43,30.19,30.03,29.94,10,7,1,24,11,31,0.03,7,Snow,260
2014-3-26,33,22,11,17,8,4,76,55,33,30.38,30.29,30.21,10,10,10,15,6,22,0.00,2,,241
2014-3-27,46,37,28,38,26,17,79,68,56,30.22,30.00,29.72,10,9,2,24,11,30,0.06,8,Rain-Snow,154
2014-3-28,52,46,40,45,37,32,77,71,65,30.20,29.85,29.60,10,10,10,33,16,41,T,8,,238
2014-3-29,40,36,32,31,28,25,76,70,64,30.21,30.16,30.08,10,9,7,23,12,30,0.00,8,,12
2014-3-30,53,40,26,25,20,14,81,53,24,30.22,30.17,30.12,10,10,10,15,7,23,0.00,1,,327
2014-3-31,58,44,30,26,23,19,72,50,28,30.23,30.16,30.03,10,10,10,15,5,21,0.00,4,,108